sensor_id;sensor_type;location;lat;lon;timestamp;P1;durP1;ratioP1;P2;durP2;ratioP2
14320;SDS011;7244;47.364;8.464;2023-12-20T00:15:02;6;;;5;;
14320;SDS011;7244;47.364;8.464;2023-12-20T00:31:02;7;;;6;;
14320;SDS011;7244;47.364;8.464;2023-12-20T00:47:02;6;;;5;;
14320;SDS011;7244;47.364;8.464;2023-12-20T01:02:02;5;;;5;;
14320;SDS011;7244;47.364;8.464;2023-12-20T01:18:05;5;;;4;;
14320;SDS011;7244;47.364;8.464;2023-12-20T01:34:02;6;;;5;;
14320;SDS011;7244;47.364;8.464;2023-12-20T01:50:01;5;;;4;;
14320;SDS011;7244;47.364;8.464;2023-12-20T02:05:01;6;;;5;;
14320;SDS011;7244;47.364;8.464;2023-12-20T02:21:03;7;;;5;;
14320;SDS011;7244;47.364;8.464;2023-12-20T02:37:02;6;;;5;;
14320;SDS011;7244;47.364;8.464;2023-12-20T02:52:02;7;;;6;;
14320;SDS011;7244;47.364;8.464;2023-12-20T03:08:02;9;;;6;;
14320;SDS011;7244;47.364;8.464;2023-12-20T03:24:01;7;;;6;;
14320;SDS011;7244;47.364;8.464;2023-12-20T03:40:02;5;;;5;;
14320;SDS011;7244;47.364;8.464;2023-12-20T03:56:02;6;;;5;;
14320;SDS011;7244;47.364;8.464;2023-12-20T04:13:01;5;;;5;;
14320;SDS011;7244;47.364;8.464;2023-12-20T04:29:01;6;;;5;;
14320;SDS011;7244;47.364;8.464;2023-12-20T04:45:02;6;;;6;;
14320;SDS011;7244;47.364;8.464;2023-12-20T05:01:03;7;;;6;;
14320;SDS011;7244;47.364;8.464;2023-12-20T05:18:02;6;;;6;;
14320;SDS011;7244;47.364;8.464;2023-12-20T05:34:02;7;;;6;;
14320;SDS011;7244;47.364;8.464;2023-12-20T05:50:02;8;;;6;;
14320;SDS011;7244;47.364;8.464;2023-12-20T06:06:04;8;;;6;;
14320;SDS011;7244;47.364;8.464;2023-12-20T06:22:01;6;;;5;;
14320;SDS011;7244;47.364;8.464;2023-12-20T06:39:02;6;;;5;;
14320;SDS011;7244;47.364;8.464;2023-12-20T06:55:02;5;;;5;;
14320;SDS011;7244;47.364;8.464;2023-12-20T07:11:02;5;;;4;;
14320;SDS011;7244;47.364;8.464;2023-12-20T07:27:02;7;;;7;;
14320;SDS011;7244;47.364;8.464;2023-12-20T07:44:01;7;;;6;;
14320;SDS011;7244;47.364;8.464;2023-12-20T08:00:01;7;;;6;;
14320;SDS011;7244;47.364;8.464;2023-12-20T08:16:02;7;;;6;;
14320;SDS011;7244;47.364;8.464;2023-12-20T08:32:01;6;;;5;;
14320;SDS011;7244;47.364;8.464;2023-12-20T08:48:02;6;;;6;;
14320;SDS011;7244;47.364;8.464;2023-12-20T09:05:03;6;;;6;;
14320;SDS011;7244;47.364;8.464;2023-12-20T09:21:01;6;;;6;;
14320;SDS011;7244;47.364;8.464;2023-12-20T09:37:02;7;;;6;;
14320;SDS011;7244;47.364;8.464;2023-12-20T09:53:02;7;;;6;;
14320;SDS011;7244;47.364;8.464;2023-12-20T10:10:02;6;;;6;;
14320;SDS011;7244;47.364;8.464;2023-12-20T10:26:02;8;;;7;;
14320;SDS011;7244;47.364;8.464;2023-12-20T10:42:02;7;;;5;;
14320;SDS011;7244;47.364;8.464;2023-12-20T10:58:05;7;;;6;;
14320;SDS011;7244;47.364;8.464;2023-12-20T11:14:03;6;;;5;;
14320;SDS011;7244;47.364;8.464;2023-12-20T11:31:01;5;;;5;;
14320;SDS011;7244;47.364;8.464;2023-12-20T11:47:05;5;;;4;;
14320;SDS011;7244;47.364;8.464;2023-12-20T12:03:02;5;;;4;;
14320;SDS011;7244;47.364;8.464;2023-12-20T12:19:02;3;;;3;;
14320;SDS011;7244;47.364;8.464;2023-12-20T12:36:01;2;;;2;;
14320;SDS011;7244;47.364;8.464;2023-12-20T12:52:02;1;;;1;;
14320;SDS011;7244;47.364;8.464;2023-12-20T13:08:02;2;;;1;;
14320;SDS011;7244;47.364;8.464;2023-12-20T13:24:01;1;;;1;;
14320;SDS011;7244;47.364;8.464;2023-12-20T13:40:02;2;;;1;;
14320;SDS011;7244;47.364;8.464;2023-12-20T13:57:02;2;;;1;;
14320;SDS011;7244;47.364;8.464;2023-12-20T14:12:02;2;;;1;;
14320;SDS011;7244;47.364;8.464;2023-12-20T14:28:02;3;;;1;;
14320;SDS011;7244;47.364;8.464;2023-12-20T14:44:01;3;;;2;;
14320;SDS011;7244;47.364;8.464;2023-12-20T15:00:02;3;;;1;;
14320;SDS011;7244;47.364;8.464;2023-12-20T15:15:02;2;;;1;;
14320;SDS011;7244;47.364;8.464;2023-12-20T15:32:02;1;;;1;;
14320;SDS011;7244;47.364;8.464;2023-12-20T15:48:02;4;;;2;;
14320;SDS011;7244;47.364;8.464;2023-12-20T16:04:01;3;;;1;;
14320;SDS011;7244;47.364;8.464;2023-12-20T16:19:02;4;;;1;;
14320;SDS011;7244;47.364;8.464;2023-12-20T16:35:02;5;;;1;;
14320;SDS011;7244;47.364;8.464;2023-12-20T16:51:04;3;;;1;;
14320;SDS011;7244;47.364;8.464;2023-12-20T17:06:02;2;;;1;;
14320;SDS011;7244;47.364;8.464;2023-12-20T17:22:04;3;;;1;;
14320;SDS011;7244;47.364;8.464;2023-12-20T17:38:01;3;;;1;;
14320;SDS011;7244;47.364;8.464;2023-12-20T17:54:02;2;;;1;;
14320;SDS011;7244;47.364;8.464;2023-12-20T18:09:01;3;;;1;;
14320;SDS011;7244;47.364;8.464;2023-12-20T18:25:02;2;;;1;;
14320;SDS011;7244;47.364;8.464;2023-12-20T18:41:02;1;;;1;;
14320;SDS011;7244;47.364;8.464;2023-12-20T18:57:01;1;;;1;;
14320;SDS011;7244;47.364;8.464;2023-12-20T19:12:01;2;;;1;;
14320;SDS011;7244;47.364;8.464;2023-12-20T19:28:02;2;;;1;;
14320;SDS011;7244;47.364;8.464;2023-12-20T19:44:01;1;;;1;;
14320;SDS011;7244;47.364;8.464;2023-12-20T19:59:02;2;;;1;;
14320;SDS011;7244;47.364;8.464;2023-12-20T20:15:02;2;;;1;;
14320;SDS011;7244;47.364;8.464;2023-12-20T20:31:01;2;;;1;;
14320;SDS011;7244;47.364;8.464;2023-12-20T20:47:02;1;;;1;;
14320;SDS011;7244;47.364;8.464;2023-12-20T21:02:02;1;;;1;;
14320;SDS011;7244;47.364;8.464;2023-12-20T21:18:02;3;;;1;;
14320;SDS011;7244;47.364;8.464;2023-12-20T21:34:02;1;;;1;;
14320;SDS011;7244;47.364;8.464;2023-12-20T21:49:01;2;;;0;;
14320;SDS011;7244;47.364;8.464;2023-12-20T22:05:03;2;;;1;;
14320;SDS011;7244;47.364;8.464;2023-12-20T22:21:01;1;;;0;;
14320;SDS011;7244;47.364;8.464;2023-12-20T22:37:02;1;;;0;;
14320;SDS011;7244;47.364;8.464;2023-12-20T22:52:02;2;;;0;;
14320;SDS011;7244;47.364;8.464;2023-12-20T23:08:02;3;;;0;;
14320;SDS011;7244;47.364;8.464;2023-12-20T23:24:02;0;;;0;;
14320;SDS011;7244;47.364;8.464;2023-12-20T23:40:02;2;;;1;;
14320;SDS011;7244;47.364;8.464;2023-12-20T23:55:02;0;;;0;;
